createdAt,value
2023-01-03T00:02:18.666Z,9.34
2023-01-03T00:04:49.404Z,9.33
2023-01-03T00:07:33.492Z,9.33
2023-01-03T00:10:10.713Z,9.33
2023-01-03T00:12:37.681Z,9.35
2023-01-03T00:15:05.077Z,9.39
2023-01-03T00:17:31.713Z,9.38
2023-01-03T00:19:58.191Z,9.39
2023-01-03T00:22:24.737Z,9.41
2023-01-03T00:24:52.945Z,9.42
2023-01-03T00:27:19.641Z,9.45
2023-01-03T00:29:46.114Z,9.43
2023-01-03T00:32:12.924Z,9.47
2023-01-03T00:34:39.438Z,9.49
2023-01-03T00:37:05.886Z,9.45
2023-01-03T00:39:33.999Z,9.42
2023-01-03T00:42:00.472Z,9.44
2023-01-03T00:44:27.339Z,9.43
2023-01-03T00:46:53.748Z,9.42
2023-01-03T00:49:20.394Z,9.39
2023-01-03T00:51:46.908Z,9.39
2023-01-03T00:54:14.787Z,9.46
2023-01-03T00:56:43.717Z,9.42
2023-01-03T00:59:11.700Z,9.39
2023-01-03T01:01:47.223Z,9.38
2023-01-03T01:04:22.991Z,9.34
2023-01-03T01:06:52.501Z,9.30
2023-01-03T01:09:31.495Z,9.34
2023-01-03T01:11:58.018Z,9.34
2023-01-03T01:14:26.687Z,9.31
2023-01-03T01:16:53.054Z,9.33
2023-01-03T01:19:22.328Z,9.37
2023-01-03T01:21:49.003Z,9.38
2023-01-03T01:24:17.977Z,9.35
2023-01-03T01:26:45.669Z,9.37
2023-01-03T01:29:13.618Z,9.36
2023-01-03T01:31:40.963Z,9.31
2023-01-03T01:34:08.154Z,9.34
2023-01-03T01:36:37.546Z,9.35
2023-01-03T01:39:10.944Z,9.36
2023-01-03T01:41:57.320Z,9.36
2023-01-03T01:44:54.574Z,9.37
2023-01-03T01:47:32.722Z,9.35
2023-01-03T01:50:05.574Z,9.35
2023-01-03T01:52:36.487Z,9.39
2023-01-03T01:55:06.679Z,9.41
2023-01-03T01:57:35.632Z,9.39
2023-01-03T02:00:02.136Z,9.34
2023-01-03T02:02:28.723Z,9.35
2023-01-03T02:04:56.728Z,9.35
2023-01-03T02:07:23.740Z,9.36
2023-01-03T02:09:55.268Z,9.40
2023-01-03T02:12:55.038Z,9.37
2023-01-03T02:15:42.628Z,9.34
2023-01-03T02:18:24.415Z,9.33
2023-01-03T02:21:19.602Z,9.27
2023-01-03T02:24:13.188Z,9.26
2023-01-03T02:26:47.976Z,9.24
2023-01-03T02:29:40.619Z,9.24
2023-01-03T02:32:16.684Z,9.31
2023-01-03T02:35:09.120Z,9.36
2023-01-03T02:38:12.885Z,9.40
2023-01-03T02:40:54.893Z,9.31
2023-01-03T02:43:46.649Z,9.28
2023-01-03T02:46:23.863Z,9.31
2023-01-03T02:48:59.218Z,9.33
2023-01-03T02:51:37.557Z,9.27
2023-01-03T02:54:06.113Z,9.29
2023-01-03T02:56:44.120Z,9.30
2023-01-03T02:59:15.528Z,9.28
2023-01-03T03:01:45.963Z,9.29
2023-01-03T03:04:13.849Z,9.30
2023-01-03T03:06:53.771Z,9.29
2023-01-03T03:09:20.209Z,9.29
2023-01-03T03:12:24.088Z,9.30
2023-01-03T03:14:53.848Z,9.29
2023-01-03T03:17:24.829Z,9.22
2023-01-03T03:20:16.615Z,9.26
2023-01-03T03:23:08.867Z,9.24
2023-01-03T03:25:41.492Z,9.27
2023-01-03T03:28:29.616Z,9.27
2023-01-03T03:31:02.063Z,9.18
2023-01-03T03:33:33.328Z,9.19
2023-01-03T03:36:17.683Z,9.23
2023-01-03T03:38:45.695Z,9.23
2023-01-03T03:41:44.962Z,9.29
2023-01-03T03:44:39.398Z,9.29
2023-01-03T03:47:34.556Z,9.31
2023-01-03T03:50:10.113Z,9.32
2023-01-03T03:52:37.199Z,9.32
2023-01-03T03:55:13.055Z,9.34
2023-01-03T03:57:58.257Z,9.34
2023-01-03T04:00:30.868Z,9.32
2023-01-03T04:03:00.122Z,9.31
2023-01-03T04:05:29.428Z,9.21
2023-01-03T04:07:55.918Z,9.18
2023-01-03T04:10:23.606Z,9.18
2023-01-03T04:12:51.783Z,9.18
2023-01-03T04:15:18.678Z,9.22
2023-01-03T04:17:45.313Z,9.26
2023-01-03T04:20:12.486Z,9.28
2023-01-03T04:22:38.908Z,9.26
2023-01-03T04:25:06.223Z,9.26
2023-01-03T04:27:32.808Z,9.28
2023-01-03T04:29:59.324Z,9.20
2023-01-03T04:32:25.717Z,9.20
2023-01-03T04:34:52.126Z,9.23
2023-01-03T04:37:18.632Z,9.25
2023-01-03T04:39:45.180Z,9.27
2023-01-03T04:42:30.215Z,9.29
2023-01-03T04:44:56.650Z,9.29
2023-01-03T04:47:23.125Z,9.30
2023-01-03T04:49:49.539Z,9.29
2023-01-03T04:52:16.884Z,9.30
2023-01-03T04:54:43.472Z,9.31
2023-01-03T04:57:10.527Z,9.32
2023-01-03T04:59:38.034Z,9.30
2023-01-03T05:02:04.952Z,9.29
2023-01-03T05:04:31.546Z,9.30
2023-01-03T05:06:58.213Z,9.29
2023-01-03T05:09:26.816Z,9.28
2023-01-03T05:11:53.235Z,9.28
2023-01-03T05:14:19.639Z,9.29
2023-01-03T05:16:46.141Z,9.29
2023-01-03T05:19:12.681Z,9.29
2023-01-03T05:21:58.183Z,9.30
2023-01-03T05:24:56.312Z,9.29
2023-01-03T05:27:23.009Z,9.29
2023-01-03T05:29:52.384Z,9.29
2023-01-03T05:32:18.895Z,9.31
2023-01-03T05:34:45.381Z,9.33
2023-01-03T05:37:12.186Z,9.33
2023-01-03T05:39:38.675Z,9.29
2023-01-03T05:42:05.709Z,9.30
2023-01-03T05:44:33.872Z,9.29
2023-01-03T05:47:02.107Z,9.31
2023-01-03T05:49:28.595Z,9.30
2023-01-03T05:51:54.979Z,9.28
2023-01-03T05:54:21.760Z,9.28
2023-01-03T05:56:48.433Z,9.29
2023-01-03T05:59:14.975Z,9.29
2023-01-03T06:01:41.565Z,9.39
2023-01-03T06:04:08.150Z,9.38
2023-01-03T06:06:34.648Z,9.36
2023-01-03T06:09:01.157Z,9.34
2023-01-03T06:11:27.895Z,9.28
2023-01-03T06:13:54.351Z,9.21
2023-01-03T06:16:39.962Z,9.25
2023-01-03T06:19:07.496Z,9.27
2023-01-03T06:21:35.040Z,9.29
2023-01-03T06:24:02.101Z,9.25
2023-01-03T06:26:28.636Z,9.20
2023-01-03T06:28:55.066Z,9.21
2023-01-03T06:31:21.719Z,9.24
2023-01-03T06:33:48.566Z,9.23
2023-01-03T06:36:17.764Z,9.26
2023-01-03T06:38:44.940Z,9.28
2023-01-03T06:41:12.986Z,9.29
2023-01-03T06:43:39.635Z,9.31
2023-01-03T06:46:26.072Z,9.32
2023-01-03T06:49:11.085Z,9.32
2023-01-03T06:51:56.463Z,9.33
2023-01-03T06:54:29.135Z,9.31
2023-01-03T06:56:56.156Z,9.33
2023-01-03T06:59:23.423Z,9.33
2023-01-03T07:01:52.511Z,9.34
2023-01-03T07:04:19.943Z,9.33
2023-01-03T07:06:46.767Z,9.36
2023-01-03T07:09:13.866Z,9.38
2023-01-03T07:11:41.124Z,9.36
2023-01-03T07:14:09.876Z,9.37
2023-01-03T07:16:42.747Z,9.38
2023-01-03T07:19:12.407Z,9.39
2023-01-03T07:21:38.959Z,9.41
2023-01-03T07:24:06.794Z,9.41
2023-01-03T07:26:34.708Z,9.43
2023-01-03T07:29:06.468Z,9.41
2023-01-03T07:31:33.704Z,9.36
2023-01-03T07:34:01.375Z,9.38
2023-01-03T07:36:27.978Z,9.39
2023-01-03T07:38:55.732Z,9.39
2023-01-03T07:41:22.670Z,9.39
2023-01-03T07:43:49.732Z,9.39
2023-01-03T07:46:24.367Z,9.40
2023-01-03T07:48:52.998Z,9.42
2023-01-03T07:51:21.542Z,9.43
2023-01-03T07:53:53.124Z,9.42
2023-01-03T07:56:21.680Z,9.30
2023-01-03T07:58:49.527Z,9.31
2023-01-03T08:01:19.050Z,9.36
2023-01-03T08:03:45.866Z,9.39
2023-01-03T08:06:17.907Z,9.43
2023-01-03T08:08:45.110Z,9.40
2023-01-03T08:11:33.649Z,9.38
2023-01-03T08:14:00.384Z,9.41
2023-01-03T08:16:27.113Z,9.45
2023-01-03T08:18:53.695Z,9.45
2023-01-03T08:21:20.171Z,9.46
2023-01-03T08:23:48.701Z,9.46
2023-01-03T08:26:16.459Z,9.50
2023-01-03T08:28:44.057Z,9.46
2023-01-03T08:31:20.978Z,9.49
2023-01-03T08:33:53.674Z,9.49
2023-01-03T08:36:20.895Z,9.45
2023-01-03T08:38:54.033Z,9.41
2023-01-03T08:41:24.743Z,9.42
2023-01-03T08:43:51.527Z,9.46
2023-01-03T08:46:18.880Z,9.46
2023-01-03T08:48:46.761Z,9.45
2023-01-03T08:51:13.213Z,9.45
2023-01-03T08:53:40.023Z,9.43
2023-01-03T08:56:07.057Z,9.39
2023-01-03T08:58:33.840Z,9.42
2023-01-03T09:01:04.821Z,9.45
2023-01-03T09:03:31.796Z,9.48
2023-01-03T09:06:02.726Z,9.49
2023-01-03T09:08:33.776Z,9.49
2023-01-03T09:11:08.741Z,9.46
2023-01-03T09:13:35.995Z,9.43
2023-01-03T09:16:03.264Z,9.36
2023-01-03T09:18:29.729Z,9.34
2023-01-03T09:20:56.244Z,9.36
2023-01-03T09:23:22.875Z,9.40
2023-01-03T09:25:49.304Z,9.40
2023-01-03T09:28:15.761Z,9.41
2023-01-03T09:30:42.167Z,9.37
2023-01-03T09:33:10.616Z,9.37
2023-01-03T09:35:37.867Z,9.43
2023-01-03T09:38:04.345Z,9.46
2023-01-03T09:40:32.676Z,9.47
2023-01-03T09:43:18.509Z,9.50
2023-01-03T09:45:51.676Z,9.49
2023-01-03T09:48:28.804Z,9.53
2023-01-03T09:51:19.295Z,9.57
2023-01-03T09:54:14.192Z,9.57
2023-01-03T09:56:59.537Z,9.62
2023-01-03T09:59:44.839Z,9.73
2023-01-03T10:02:45.085Z,9.65
2023-01-03T10:05:37.565Z,9.71
2023-01-03T10:08:46.407Z,9.75
2023-01-03T10:11:25.837Z,9.72
2023-01-03T10:14:24.253Z,9.70
2023-01-03T10:17:15.332Z,9.68
2023-01-03T10:20:16.758Z,9.68
2023-01-03T10:22:47.004Z,9.67
2023-01-03T10:25:17.900Z,9.61
2023-01-03T10:27:56.926Z,9.63
2023-01-03T10:30:53.850Z,9.64
2023-01-03T10:33:31.917Z,9.60
2023-01-03T10:35:58.933Z,9.60
2023-01-03T10:38:26.031Z,9.61
2023-01-03T10:41:00.753Z,9.61
2023-01-03T10:43:29.451Z,9.58
2023-01-03T10:46:01.684Z,9.61
2023-01-03T10:49:17.097Z,9.63
2023-01-03T10:51:42.527Z,9.68
2023-01-03T10:54:32.139Z,9.69
2023-01-03T10:56:58.786Z,9.67
2023-01-03T10:59:30.701Z,9.74
2023-01-03T11:01:57.572Z,9.77
2023-01-03T11:04:24.561Z,9.74
2023-01-03T11:07:13.268Z,9.90
2023-01-03T11:09:53.443Z,9.86
2023-01-03T11:12:34.935Z,9.82
2023-01-03T11:15:14.124Z,9.80
2023-01-03T11:18:12.659Z,9.76
2023-01-03T11:20:50.940Z,9.76
2023-01-03T11:24:01.464Z,9.78
2023-01-03T11:26:37.379Z,9.79
2023-01-03T11:29:37.790Z,9.83
2023-01-03T11:32:26.554Z,9.86
2023-01-03T11:35:25.643Z,9.84
2023-01-03T11:38:14.421Z,9.81
2023-01-03T11:40:59.659Z,9.78
2023-01-03T11:43:53.573Z,9.78
2023-01-03T11:46:19.989Z,9.80
2023-01-03T11:49:25.625Z,9.79
2023-01-03T11:52:16.766Z,9.82
2023-01-03T11:54:58.280Z,9.85
2023-01-03T11:57:38.883Z,9.83
2023-01-03T12:00:21.393Z,9.80
2023-01-03T12:02:56.859Z,9.80
2023-01-03T12:05:47.803Z,9.81
2023-01-03T12:08:38.039Z,9.84
2023-01-03T12:11:39.740Z,9.84
2023-01-03T12:14:26.607Z,9.82
2023-01-03T12:17:15.741Z,9.79
2023-01-03T12:19:43.455Z,9.79
2023-01-03T12:22:30.699Z,9.80
2023-01-03T12:25:18.529Z,9.81
2023-01-03T12:27:50.938Z,9.82
2023-01-03T12:30:30.281Z,9.86
2023-01-03T12:33:25.356Z,9.89
2023-01-03T12:36:04.072Z,9.84
2023-01-03T12:38:37.056Z,9.89
2023-01-03T12:41:25.548Z,9.87
2023-01-03T12:44:01.306Z,9.87
2023-01-03T12:46:51.985Z,9.84
2023-01-03T12:49:18.469Z,9.89
2023-01-03T12:51:45.009Z,9.89
2023-01-03T12:54:11.394Z,9.88
2023-01-03T12:57:00.640Z,9.93
2023-01-03T12:59:39.259Z,9.95
2023-01-03T13:02:28.957Z,9.96
2023-01-03T13:05:13.458Z,9.97
2023-01-03T13:07:46.611Z,9.97
2023-01-03T13:10:17.690Z,9.96
2023-01-03T13:12:50.740Z,9.98
2023-01-03T13:15:22.893Z,9.97
2023-01-03T13:17:49.968Z,9.95
2023-01-03T13:20:26.366Z,9.96
2023-01-03T13:22:54.818Z,9.97
2023-01-03T13:25:43.990Z,9.97
2023-01-03T13:28:19.695Z,9.96
2023-01-03T13:30:46.923Z,9.94
2023-01-03T13:33:15.569Z,9.99
2023-01-03T13:35:45.088Z,10.01
2023-01-03T13:38:32.963Z,9.99
2023-01-03T13:41:19.166Z,9.98
2023-01-03T13:43:50.091Z,10.00
2023-01-03T13:46:31.424Z,10.01
2023-01-03T13:49:01.703Z,10.02
2023-01-03T13:51:30.865Z,10.06
2023-01-03T13:54:03.894Z,10.06
2023-01-03T13:56:50.327Z,10.02
2023-01-03T13:59:26.499Z,10.01
2023-01-03T14:02:38.847Z,10.00
2023-01-03T14:05:23.501Z,10.01
2023-01-03T14:08:22.699Z,10.00
2023-01-03T14:11:01.173Z,10.03
2023-01-03T14:13:27.632Z,10.00
2023-01-03T14:16:30.090Z,9.98
2023-01-03T14:19:04.463Z,10.01
2023-01-03T14:21:42.935Z,10.02
2023-01-03T14:24:18.165Z,9.97
2023-01-03T14:26:44.901Z,10.01
2023-01-03T14:29:18.089Z,10.00
2023-01-03T14:31:48.077Z,10.01
2023-01-03T14:34:25.227Z,10.02
2023-01-03T14:36:51.844Z,10.01
2023-01-03T14:41:56.484Z,9.98
2023-01-03T14:44:23.003Z,10.00
2023-01-03T14:46:53.698Z,10.01
2023-01-03T14:49:24.729Z,10.02
2023-01-03T14:51:56.465Z,10.00
2023-01-03T14:54:29.849Z,9.96
2023-01-03T14:56:56.775Z,9.95
2023-01-03T14:59:23.771Z,9.95
2023-01-03T15:01:51.082Z,9.96
2023-01-03T15:04:17.899Z,9.95
2023-01-03T15:07:09.540Z,9.95
2023-01-03T15:09:39.431Z,9.95
2023-01-03T15:12:06.449Z,9.94
2023-01-03T15:14:35.362Z,9.92
2023-01-03T15:17:13.314Z,9.95
2023-01-03T15:19:46.445Z,9.97
2023-01-03T15:22:18.787Z,9.98
2023-01-03T15:24:47.808Z,9.95
2023-01-03T15:27:42.338Z,9.94
2023-01-03T15:30:14.618Z,9.93
2023-01-03T15:32:57.493Z,9.93
2023-01-03T15:35:44.219Z,9.91
2023-01-03T15:38:34.391Z,9.90
2023-01-03T15:41:04.988Z,9.91
2023-01-03T15:43:36.992Z,9.92
2023-01-03T15:46:09.681Z,9.92
2023-01-03T15:48:36.550Z,9.90
2023-01-03T15:51:04.818Z,9.92
2023-01-03T15:53:39.356Z,9.92
2023-01-03T15:56:26.919Z,9.93
2023-01-03T15:58:55.938Z,9.92
2023-01-03T16:01:24.774Z,9.91
2023-01-03T16:03:53.680Z,9.86
2023-01-03T16:06:20.200Z,9.84
2023-01-03T16:08:46.914Z,9.83
2023-01-03T16:11:31.537Z,9.81
2023-01-03T16:14:04.730Z,9.80
2023-01-03T16:16:35.318Z,9.80
2023-01-03T16:19:04.664Z,9.81
2023-01-03T16:21:31.942Z,9.83
2023-01-03T16:23:59.016Z,9.81
2023-01-03T16:26:25.907Z,9.86
2023-01-03T16:28:52.432Z,9.82
2023-01-03T16:31:26.400Z,9.80
2023-01-03T16:33:53.055Z,9.79
2023-01-03T16:36:22.409Z,9.84
2023-01-03T16:38:48.812Z,9.84
2023-01-03T16:41:15.203Z,9.80
2023-01-03T16:43:41.615Z,9.74
2023-01-03T16:46:10.656Z,9.72
2023-01-03T16:48:40.491Z,9.75
2023-01-03T16:51:06.985Z,9.80
2023-01-03T16:53:38.604Z,9.77
2023-01-03T16:56:06.962Z,9.75
2023-01-03T16:58:33.469Z,9.77
2023-01-03T17:00:59.887Z,9.78
2023-01-03T17:03:26.637Z,9.80
2023-01-03T17:05:53.186Z,9.80
2023-01-03T17:08:39.632Z,9.81
2023-01-03T17:11:08.011Z,9.85
2023-01-03T17:13:38.177Z,9.87
2023-01-03T17:16:10.346Z,9.87
2023-01-03T17:18:37.245Z,9.81
2023-01-03T17:21:23.246Z,9.76
2023-01-03T17:23:52.358Z,9.77
2023-01-03T17:26:21.444Z,9.77
2023-01-03T17:28:49.557Z,9.77
2023-01-03T17:31:19.045Z,9.74
2023-01-03T17:33:46.195Z,9.71
2023-01-03T17:36:14.796Z,9.74
2023-01-03T17:38:45.223Z,9.76
2023-01-03T17:41:18.267Z,9.76
2023-01-03T17:43:45.059Z,9.75
2023-01-03T17:46:44.584Z,9.74
2023-01-03T17:49:24.596Z,9.80
2023-01-03T17:52:02.234Z,9.77
2023-01-03T17:54:38.332Z,9.73
2023-01-03T17:57:05.614Z,9.73
2023-01-03T17:59:32.671Z,9.76
2023-01-03T18:01:59.201Z,9.75
2023-01-03T18:04:43.985Z,9.76
2023-01-03T18:07:24.745Z,9.72
2023-01-03T18:09:54.066Z,9.70
2023-01-03T18:12:23.605Z,9.71
2023-01-03T18:14:50.783Z,9.70
2023-01-03T18:17:34.028Z,9.70
2023-01-03T18:20:01.076Z,9.68
2023-01-03T18:22:28.431Z,9.70
2023-01-03T18:24:55.423Z,9.71
2023-01-03T18:27:23.633Z,9.67
2023-01-03T18:29:50.122Z,9.68
2023-01-03T18:32:32.153Z,9.72
2023-01-03T18:34:59.077Z,9.72
2023-01-03T18:37:34.790Z,9.73
2023-01-03T18:40:06.096Z,9.73
2023-01-03T18:43:09.407Z,9.73
2023-01-03T18:45:39.690Z,9.73
2023-01-03T18:48:07.123Z,9.69
2023-01-03T18:50:33.565Z,9.67
2023-01-03T18:53:04.097Z,9.69
2023-01-03T18:55:33.704Z,9.66
2023-01-03T18:58:16.983Z,9.66
2023-01-03T19:00:45.743Z,9.61
2023-01-03T19:03:26.219Z,9.56
2023-01-03T19:05:57.062Z,9.55
2023-01-03T19:08:27.531Z,9.53
2023-01-03T19:11:07.868Z,9.55
2023-01-03T19:13:58.074Z,9.58
2023-01-03T19:16:36.943Z,9.61
2023-01-03T19:19:09.263Z,9.57
2023-01-03T19:21:53.707Z,9.61
2023-01-03T19:24:34.603Z,9.64
2023-01-03T19:27:11.000Z,9.64
2023-01-03T19:29:38.207Z,9.62
2023-01-03T19:32:17.899Z,9.64
2023-01-03T19:34:44.376Z,9.56
2023-01-03T19:37:11.529Z,9.58
2023-01-03T19:39:59.200Z,9.60
2023-01-03T19:45:40.297Z,9.61
2023-01-03T19:48:27.275Z,9.61
2023-01-03T19:56:38.592Z,9.59
2023-01-03T19:59:33.824Z,9.61
2023-01-03T20:02:34.706Z,9.55
2023-01-03T20:05:07.705Z,9.47
2023-01-03T20:07:35.631Z,9.49
2023-01-03T20:10:17.719Z,9.49
2023-01-03T20:12:59.712Z,9.50
2023-01-03T20:16:12.744Z,9.51
2023-01-03T20:18:41.521Z,9.55
2023-01-03T20:21:29.551Z,9.53
2023-01-03T20:24:01.496Z,9.55
2023-01-03T20:26:31.362Z,9.51
2023-01-03T20:28:58.765Z,9.51
2023-01-03T20:31:26.159Z,9.51
2023-01-03T20:33:52.688Z,9.49
2023-01-03T20:36:24.021Z,9.47
2023-01-03T20:38:53.353Z,9.45
2023-01-03T20:41:20.236Z,9.45
2023-01-03T20:43:50.527Z,9.46
2023-01-03T20:46:20.509Z,9.49
2023-01-03T20:48:55.208Z,9.48
2023-01-03T20:51:21.996Z,9.50
2023-01-03T20:53:54.071Z,9.52
2023-01-03T20:56:21.627Z,9.48
2023-01-03T20:58:48.552Z,9.44
2023-01-03T21:01:15.157Z,9.43
2023-01-03T21:03:41.759Z,9.45
2023-01-03T21:06:20.540Z,9.47
2023-01-03T21:08:56.888Z,9.47
2023-01-03T21:11:38.769Z,9.45
2023-01-03T21:14:05.457Z,9.46
2023-01-03T21:16:33.586Z,9.45
2023-01-03T21:19:10.865Z,9.46
2023-01-03T21:21:37.663Z,9.43
2023-01-03T21:24:06.701Z,9.42
2023-01-03T21:26:34.050Z,9.43
2023-01-03T21:29:00.962Z,9.45
2023-01-03T21:31:27.803Z,9.46
2023-01-03T21:33:55.009Z,9.44
2023-01-03T21:36:24.772Z,9.45
2023-01-03T21:38:52.004Z,9.46
2023-01-03T21:41:21.147Z,9.51
2023-01-03T21:43:47.716Z,9.52
2023-01-03T21:46:19.162Z,9.45
2023-01-03T21:48:46.223Z,9.46
2023-01-03T21:51:16.313Z,9.47
2023-01-03T21:53:45.528Z,9.48
2023-01-03T21:56:23.623Z,9.51
2023-01-03T21:58:50.804Z,9.49
2023-01-03T22:01:21.044Z,9.52
2023-01-03T22:04:07.266Z,9.50
2023-01-03T22:06:34.721Z,9.48
2023-01-03T22:09:06.100Z,9.46
2023-01-03T22:11:32.618Z,9.46
2023-01-03T22:14:00.346Z,9.45
2023-01-03T22:16:26.860Z,9.43
2023-01-03T22:18:53.509Z,9.45
2023-01-03T22:21:21.242Z,9.50
2023-01-03T22:23:47.817Z,9.50
2023-01-03T22:26:16.215Z,9.48
2023-01-03T22:28:45.158Z,9.46
2023-01-03T22:31:11.568Z,9.48
2023-01-03T22:33:38.143Z,9.49
2023-01-03T22:36:05.244Z,9.55
2023-01-03T22:38:31.754Z,9.56
2023-01-03T22:40:58.138Z,9.53
2023-01-03T22:43:24.529Z,9.57
2023-01-03T22:45:51.014Z,9.58
2023-01-03T22:48:17.408Z,9.59
2023-01-03T22:50:44.011Z,9.58
2023-01-03T22:53:10.517Z,9.57
2023-01-03T22:55:42.014Z,9.58
2023-01-03T22:58:08.477Z,9.57
2023-01-03T23:00:34.883Z,9.59
2023-01-03T23:03:01.785Z,9.57
2023-01-03T23:05:28.299Z,9.55
2023-01-03T23:07:54.709Z,9.52
2023-01-03T23:10:21.186Z,9.53
2023-01-03T23:12:59.727Z,9.54
2023-01-03T23:15:28.880Z,9.50
2023-01-03T23:17:58.406Z,9.47
2023-01-03T23:20:31.915Z,9.51
2023-01-03T23:23:04.114Z,9.52
2023-01-03T23:25:33.042Z,9.52
2023-01-03T23:27:59.445Z,9.52
2023-01-03T23:30:26.326Z,9.53
2023-01-03T23:32:52.819Z,9.51
2023-01-03T23:35:19.225Z,9.54
2023-01-03T23:37:49.080Z,9.49
2023-01-03T23:40:16.598Z,9.47
2023-01-03T23:42:43.073Z,9.45
2023-01-03T23:45:09.847Z,9.42
2023-01-03T23:47:36.329Z,9.41
2023-01-03T23:50:03.009Z,9.41
2023-01-03T23:52:29.397Z,9.41
2023-01-03T23:55:00.717Z,9.43
2023-01-03T23:57:30.126Z,9.46
2023-01-03T23:59:56.573Z,9.49
